createdAt,value
2022-11-27T00:00:55.893Z,84
2022-11-27T00:02:03.118Z,84
2022-11-27T00:03:10.368Z,84
2022-11-27T00:04:17.355Z,84
2022-11-27T00:05:23.804Z,84
2022-11-27T00:06:30.907Z,85
2022-11-27T00:07:38.133Z,85
2022-11-27T00:08:45.147Z,85
2022-11-27T00:09:52.424Z,85
2022-11-27T00:10:58.842Z,85
2022-11-27T00:12:05.943Z,85
2022-11-27T00:13:13.031Z,85
2022-11-27T00:14:20.119Z,85
2022-11-27T00:15:27.342Z,85
2022-11-27T00:16:33.879Z,85
2022-11-27T00:17:40.930Z,86
2022-11-27T00:18:48.583Z,86
2022-11-27T00:21:02.266Z,86
2022-11-27T00:22:08.818Z,86
2022-11-27T00:23:16.481Z,86
2022-11-27T00:24:23.037Z,86
2022-11-27T00:25:30.552Z,86
2022-11-27T00:26:38.088Z,86
2022-11-27T00:27:43.825Z,86
2022-11-27T00:28:50.895Z,86
2022-11-27T00:29:58.077Z,86
2022-11-27T00:31:05.212Z,86
2022-11-27T00:32:12.253Z,86
2022-11-27T00:33:18.900Z,86
2022-11-27T00:34:25.966Z,86
2022-11-27T00:35:33.052Z,86
2022-11-27T00:36:43.948Z,86
2022-11-27T00:37:47.298Z,86
2022-11-27T00:38:53.848Z,86
2022-11-27T00:40:01.061Z,86
2022-11-27T00:41:08.085Z,86
2022-11-27T00:42:15.190Z,86
2022-11-27T00:43:22.304Z,86
2022-11-27T00:44:28.897Z,86
2022-11-27T00:45:35.972Z,86
2022-11-27T00:46:43.142Z,86
2022-11-27T00:47:50.152Z,85
2022-11-27T00:48:57.322Z,85
2022-11-27T00:50:03.848Z,85
2022-11-27T00:52:18.154Z,85
2022-11-27T00:53:25.193Z,85
2022-11-27T00:54:32.295Z,85
2022-11-27T00:55:38.900Z,85
2022-11-27T00:56:46.039Z,85
2022-11-27T00:57:53.050Z,84
2022-11-27T00:59:00.176Z,84
2022-11-27T01:00:07.279Z,84
2022-11-27T01:02:21.057Z,84
2022-11-27T01:04:35.196Z,84
2022-11-27T01:05:42.269Z,84
2022-11-27T01:06:48.958Z,84
2022-11-27T01:07:56.114Z,84
2022-11-27T01:09:03.051Z,83
2022-11-27T01:11:17.294Z,83
2022-11-27T01:12:23.915Z,83
2022-11-27T01:13:30.953Z,83
2022-11-27T01:14:38.450Z,83
2022-11-27T01:15:45.296Z,83
2022-11-27T01:16:51.855Z,83
2022-11-27T01:17:58.948Z,82
2022-11-27T01:20:13.110Z,82
2022-11-27T01:21:20.277Z,82
2022-11-27T01:22:27.324Z,81
2022-11-27T01:23:33.941Z,81
2022-11-27T01:24:41.284Z,81
2022-11-27T01:25:48.104Z,80
2022-11-27T01:26:55.203Z,80
2022-11-27T01:28:01.815Z,80
2022-11-27T01:29:08.941Z,80
2022-11-27T01:30:16.026Z,80
2022-11-27T01:31:23.291Z,80
2022-11-27T01:32:30.261Z,80
2022-11-27T01:33:36.841Z,80
2022-11-27T01:34:43.932Z,80
2022-11-27T01:35:51.012Z,80
2022-11-27T01:36:58.117Z,80
2022-11-27T01:38:05.387Z,80
2022-11-27T01:39:11.792Z,80
2022-11-27T01:40:18.960Z,80
2022-11-27T01:41:26.116Z,80
2022-11-27T01:43:40.290Z,80
2022-11-27T01:44:46.880Z,79
2022-11-27T01:45:53.944Z,79
2022-11-27T01:48:08.136Z,79
2022-11-27T01:49:15.357Z,79
2022-11-27T01:50:21.875Z,79
2022-11-27T01:51:28.964Z,79
2022-11-27T01:52:36.028Z,79
2022-11-27T01:53:43.142Z,79
2022-11-27T01:54:50.291Z,79
2022-11-27T01:55:56.866Z,79
2022-11-27T01:57:04.051Z,79
2022-11-27T01:58:11.070Z,78
2022-11-27T01:59:18.181Z,78
2022-11-27T02:00:25.283Z,78
2022-11-27T02:01:31.974Z,78
2022-11-27T02:02:39.005Z,78
2022-11-27T02:03:46.056Z,78
2022-11-27T02:04:53.181Z,77
2022-11-27T02:06:00.286Z,77
2022-11-27T02:08:13.966Z,77
2022-11-27T02:09:21.090Z,77
2022-11-27T02:10:28.205Z,77
2022-11-27T02:11:35.381Z,77
2022-11-27T02:12:41.862Z,77
2022-11-27T02:13:48.991Z,77
2022-11-27T02:14:56.111Z,77
2022-11-27T02:16:03.205Z,77
2022-11-27T02:17:10.306Z,77
2022-11-27T02:18:16.882Z,77
2022-11-27T02:19:24.000Z,77
2022-11-27T02:20:31.102Z,77
2022-11-27T02:21:37.674Z,77
2022-11-27T02:22:44.790Z,77
2022-11-27T02:24:58.986Z,77
2022-11-27T02:26:06.601Z,77
2022-11-27T02:27:13.282Z,77
2022-11-27T02:28:19.816Z,77
2022-11-27T02:29:26.872Z,77
2022-11-27T02:30:34.031Z,77
2022-11-27T02:31:41.206Z,77
2022-11-27T02:32:48.203Z,77
2022-11-27T02:33:54.752Z,77
2022-11-27T02:35:01.899Z,76
2022-11-27T02:36:08.998Z,76
2022-11-27T02:37:16.184Z,76
2022-11-27T02:39:29.822Z,76
2022-11-27T02:40:36.899Z,75
2022-11-27T02:41:44.040Z,75
2022-11-27T02:42:51.100Z,75
2022-11-27T02:43:58.260Z,75
2022-11-27T02:45:04.816Z,75
2022-11-27T02:46:11.912Z,75
2022-11-27T02:47:19.051Z,74
2022-11-27T02:48:26.153Z,74
2022-11-27T02:49:32.707Z,74
2022-11-27T02:50:39.962Z,74
2022-11-27T02:51:46.909Z,74
2022-11-27T02:52:55.001Z,74
2022-11-27T02:54:01.156Z,74
2022-11-27T02:55:08.218Z,74
2022-11-27T02:56:14.844Z,74
2022-11-27T02:57:21.908Z,74
2022-11-27T02:58:29.041Z,74
2022-11-27T02:59:36.165Z,74
2022-11-27T03:00:43.262Z,74
2022-11-27T03:01:50.018Z,74
2022-11-27T03:02:57.199Z,74
2022-11-27T03:04:04.062Z,73
2022-11-27T03:06:18.342Z,73
2022-11-27T03:07:24.920Z,74
2022-11-27T03:08:31.955Z,74
2022-11-27T03:09:39.054Z,74
2022-11-27T03:10:46.173Z,74
2022-11-27T03:11:53.256Z,74
2022-11-27T03:12:59.883Z,74
2022-11-27T03:14:07.116Z,74
2022-11-27T03:15:14.614Z,74
2022-11-27T03:16:21.326Z,74
2022-11-27T03:18:34.883Z,75
2022-11-27T03:19:41.947Z,75
2022-11-27T03:20:49.077Z,75
2022-11-27T03:21:56.282Z,75
2022-11-27T03:23:02.763Z,75
2022-11-27T03:24:09.898Z,76
2022-11-27T03:25:17.001Z,76
2022-11-27T03:26:24.102Z,76
2022-11-27T03:27:31.162Z,77
2022-11-27T03:28:37.774Z,77
2022-11-27T03:29:45.375Z,78
2022-11-27T03:30:51.977Z,78
2022-11-27T03:31:59.209Z,78
2022-11-27T03:33:06.219Z,79
2022-11-27T03:34:12.731Z,79
2022-11-27T03:35:19.904Z,79
2022-11-27T03:36:27.096Z,80
2022-11-27T03:37:34.072Z,80
2022-11-27T03:38:41.210Z,80
2022-11-27T03:39:47.842Z,81
2022-11-27T03:40:54.921Z,81
2022-11-27T03:42:02.010Z,81
2022-11-27T03:43:09.141Z,82
2022-11-27T03:44:16.234Z,82
2022-11-27T03:47:37.040Z,82
2022-11-27T03:48:44.105Z,82
2022-11-27T03:49:51.204Z,82
2022-11-27T03:50:57.822Z,82
2022-11-27T03:52:04.932Z,83
2022-11-27T03:53:12.005Z,83
2022-11-27T03:54:19.160Z,83
2022-11-27T03:55:26.234Z,83
2022-11-27T03:56:32.872Z,83
2022-11-27T03:57:39.933Z,83
2022-11-27T03:58:47.034Z,83
2022-11-27T03:59:54.162Z,83
2022-11-27T04:01:01.212Z,83
2022-11-27T04:02:07.900Z,83
2022-11-27T04:03:14.942Z,82
2022-11-27T04:04:23.081Z,82
2022-11-27T04:05:29.168Z,82
2022-11-27T04:07:42.962Z,82
2022-11-27T04:08:49.962Z,81
2022-11-27T04:09:56.992Z,81
2022-11-27T04:11:04.165Z,81
2022-11-27T04:12:11.198Z,81
2022-11-27T04:13:17.814Z,81
2022-11-27T04:15:31.991Z,81
2022-11-27T04:16:39.252Z,81
2022-11-27T04:17:46.265Z,81
2022-11-27T04:18:52.887Z,80
2022-11-27T04:20:00.974Z,81
2022-11-27T04:21:07.030Z,81
2022-11-27T04:22:14.266Z,81
2022-11-27T04:23:21.258Z,81
2022-11-27T04:24:27.826Z,81
2022-11-27T04:25:35.012Z,81
2022-11-27T04:26:42.011Z,81
2022-11-27T04:28:56.260Z,82
2022-11-27T04:30:02.860Z,82
2022-11-27T04:31:10.083Z,82
2022-11-27T04:32:17.132Z,82
2022-11-27T04:33:24.696Z,82
2022-11-27T04:34:31.233Z,83
2022-11-27T04:35:37.903Z,83
2022-11-27T04:36:45.063Z,83
2022-11-27T04:37:52.027Z,83
2022-11-27T04:38:59.138Z,82
2022-11-27T04:40:06.284Z,83
2022-11-27T04:41:12.818Z,83
2022-11-27T04:42:19.996Z,83
2022-11-27T04:43:27.652Z,83
2022-11-27T04:44:34.177Z,83
2022-11-27T04:45:41.817Z,83
2022-11-27T04:46:47.997Z,83
2022-11-27T04:47:54.472Z,82
2022-11-27T04:49:02.071Z,82
2022-11-27T04:50:09.322Z,82
2022-11-27T04:51:15.830Z,82
2022-11-27T04:52:22.873Z,82
2022-11-27T04:53:29.947Z,82
2022-11-27T04:54:37.111Z,82
2022-11-27T04:55:44.179Z,82
2022-11-27T04:56:50.763Z,82
2022-11-27T04:57:57.913Z,82
2022-11-27T04:59:05.042Z,82
2022-11-27T05:00:12.067Z,82
2022-11-27T05:01:19.274Z,82
2022-11-27T05:02:25.882Z,82
2022-11-27T05:03:32.849Z,82
2022-11-27T05:04:40.325Z,82
2022-11-27T05:05:47.122Z,83
2022-11-27T05:06:54.243Z,83
2022-11-27T05:08:00.830Z,83
2022-11-27T05:10:15.000Z,83
2022-11-27T05:11:22.096Z,83
2022-11-27T05:12:29.301Z,83
2022-11-27T05:13:35.849Z,83
2022-11-27T05:14:43.164Z,83
2022-11-27T05:16:57.175Z,83
2022-11-27T05:19:10.812Z,82
2022-11-27T05:20:17.941Z,82
2022-11-27T05:21:25.049Z,82
2022-11-27T05:22:32.083Z,82
2022-11-27T05:23:39.220Z,82
2022-11-27T05:24:45.864Z,82
2022-11-27T05:25:52.926Z,81
2022-11-27T05:27:00.174Z,81
2022-11-27T05:28:07.210Z,81
2022-11-27T05:29:14.264Z,81
2022-11-27T05:30:20.833Z,81
2022-11-27T05:31:28.085Z,80
2022-11-27T05:32:35.087Z,80
2022-11-27T05:33:42.152Z,80
2022-11-27T05:35:55.881Z,80
2022-11-27T05:37:03.503Z,80
2022-11-27T05:38:10.082Z,79
2022-11-27T05:39:17.169Z,79
2022-11-27T05:40:24.255Z,79
2022-11-27T05:41:30.813Z,79
2022-11-27T05:42:37.983Z,79
2022-11-27T05:44:57.869Z,79
2022-11-27T05:45:59.261Z,79
2022-11-27T05:47:05.928Z,79
2022-11-27T05:48:12.927Z,79
2022-11-27T05:49:20.083Z,78
2022-11-27T05:51:34.312Z,77
2022-11-27T05:52:41.010Z,77
2022-11-27T05:53:47.991Z,77
2022-11-27T05:54:55.094Z,77
2022-11-27T05:56:02.145Z,77
2022-11-27T05:57:08.799Z,77
2022-11-27T05:58:15.904Z,78
2022-11-27T05:59:22.927Z,78
2022-11-27T06:00:30.087Z,79
2022-11-27T06:01:37.335Z,79
2022-11-27T06:02:43.948Z,80
2022-11-27T06:03:50.984Z,80
2022-11-27T06:04:57.991Z,80
2022-11-27T06:06:05.097Z,80
2022-11-27T06:07:12.290Z,80
2022-11-27T06:08:19.808Z,80
2022-11-27T06:09:25.872Z,80
2022-11-27T06:10:33.002Z,80
2022-11-27T06:12:47.322Z,80
2022-11-27T06:13:53.756Z,80
2022-11-27T06:15:00.842Z,80
2022-11-27T06:16:08.169Z,80
2022-11-27T06:17:15.179Z,80
2022-11-27T06:18:22.181Z,80
2022-11-27T06:19:28.809Z,80
2022-11-27T06:20:39.530Z,80
2022-11-27T06:22:50.097Z,80
2022-11-27T06:23:57.193Z,80
2022-11-27T06:25:03.775Z,80
2022-11-27T06:26:10.923Z,80
2022-11-27T06:27:18.061Z,80
2022-11-27T06:28:25.131Z,80
2022-11-27T06:29:32.210Z,80
2022-11-27T06:30:38.797Z,80
2022-11-27T06:32:55.093Z,80
2022-11-27T06:34:00.146Z,81
2022-11-27T06:35:07.241Z,81
2022-11-27T06:36:13.761Z,81
2022-11-27T06:37:20.928Z,81
2022-11-27T06:38:28.071Z,81
2022-11-27T06:39:35.161Z,81
2022-11-27T06:40:42.758Z,81
2022-11-27T06:41:48.892Z,81
2022-11-27T06:42:55.909Z,81
2022-11-27T06:44:03.018Z,81
2022-11-27T06:45:10.129Z,81
2022-11-27T06:46:16.822Z,81
2022-11-27T06:47:23.796Z,81
2022-11-27T06:48:30.949Z,81
2022-11-27T06:49:39.072Z,81
2022-11-27T06:50:45.159Z,81
2022-11-27T06:51:52.299Z,81
2022-11-27T06:52:58.820Z,81
2022-11-27T06:54:05.962Z,81
2022-11-27T06:55:13.053Z,81
2022-11-27T06:56:20.180Z,81
2022-11-27T06:57:26.781Z,81
2022-11-27T06:58:33.821Z,81
2022-11-27T06:59:40.927Z,81
2022-11-27T07:00:48.136Z,81
2022-11-27T07:01:55.357Z,81
2022-11-27T07:04:08.851Z,81
2022-11-27T07:05:15.959Z,81
2022-11-27T07:06:23.074Z,81
2022-11-27T07:08:36.849Z,82
2022-11-27T07:09:43.819Z,82
2022-11-27T07:10:50.951Z,82
2022-11-27T07:11:58.071Z,82
2022-11-27T07:14:11.743Z,83
2022-11-27T07:15:18.852Z,83
2022-11-27T07:16:25.981Z,83
2022-11-27T07:17:33.151Z,83
2022-11-27T07:18:40.229Z,83
2022-11-27T07:19:46.771Z,84
2022-11-27T07:20:56.649Z,84
2022-11-27T07:22:00.961Z,84
2022-11-27T07:23:08.080Z,84
2022-11-27T07:24:15.180Z,84
2022-11-27T07:26:28.901Z,84
2022-11-27T07:27:36.091Z,84
2022-11-27T07:28:43.049Z,84
2022-11-27T07:29:50.220Z,84
2022-11-27T07:30:57.863Z,85
2022-11-27T07:32:04.039Z,85
2022-11-27T07:33:10.948Z,85
2022-11-27T07:34:21.596Z,85
2022-11-27T07:35:25.243Z,85
2022-11-27T07:36:31.742Z,85
2022-11-27T07:37:38.989Z,85
2022-11-27T07:38:46.085Z,85
2022-11-27T07:40:02.591Z,85
2022-11-27T07:41:00.235Z,85
2022-11-27T07:42:36.977Z,85
2022-11-27T07:43:13.867Z,85
2022-11-27T07:44:21.515Z,85
2022-11-27T07:45:28.206Z,85
2022-11-27T07:46:35.241Z,85
2022-11-27T07:47:41.815Z,85
2022-11-27T07:48:48.911Z,85
2022-11-27T07:49:56.044Z,85
2022-11-27T07:51:03.117Z,85
2022-11-27T07:52:10.302Z,85
2022-11-27T07:53:16.769Z,85
2022-11-27T07:55:30.990Z,85
2022-11-27T07:56:38.154Z,85
2022-11-27T07:57:45.242Z,85
2022-11-27T07:58:51.850Z,85
2022-11-27T07:59:58.937Z,85
2022-11-27T08:01:06.053Z,85
2022-11-27T08:02:13.194Z,85
2022-11-27T08:03:20.246Z,85
2022-11-27T08:04:27.034Z,85
2022-11-27T08:05:33.886Z,84
2022-11-27T08:06:41.064Z,84
2022-11-27T08:07:48.310Z,84
2022-11-27T08:08:54.767Z,84
2022-11-27T08:10:01.293Z,84
2022-11-27T08:11:08.925Z,84
2022-11-27T08:12:15.622Z,84
2022-11-27T08:13:23.170Z,84
2022-11-27T08:14:29.772Z,84
2022-11-27T08:15:36.846Z,84
2022-11-27T08:16:43.996Z,83
2022-11-27T08:17:51.048Z,83
2022-11-27T08:18:58.247Z,83
2022-11-27T08:20:04.786Z,83
2022-11-27T08:21:11.863Z,83
2022-11-27T08:22:19.034Z,82
2022-11-27T08:23:26.073Z,82
2022-11-27T08:24:33.138Z,82
2022-11-27T08:25:39.775Z,82
2022-11-27T08:26:46.883Z,82
2022-11-27T08:27:54.037Z,82
2022-11-27T08:30:08.168Z,81
2022-11-27T08:32:21.832Z,81
2022-11-27T08:33:28.993Z,81
2022-11-27T08:34:36.111Z,81
2022-11-27T08:36:49.814Z,81
2022-11-27T08:37:56.976Z,81
2022-11-27T08:39:03.992Z,81
2022-11-27T08:40:11.090Z,81
2022-11-27T08:41:19.416Z,81
2022-11-27T08:42:24.792Z,80
2022-11-27T08:43:31.885Z,80
2022-11-27T08:44:39.436Z,80
2022-11-27T08:45:46.200Z,80
2022-11-27T08:46:53.191Z,80
2022-11-27T08:48:00.449Z,80
2022-11-27T08:49:06.873Z,80
2022-11-27T08:50:14.000Z,79
2022-11-27T08:51:21.102Z,79
2022-11-27T08:52:28.169Z,79
2022-11-27T08:53:35.873Z,79
2022-11-27T08:54:42.338Z,79
2022-11-27T08:55:49.036Z,79
2022-11-27T08:56:56.310Z,79
2022-11-27T08:58:03.200Z,79
2022-11-27T08:59:09.795Z,79
2022-11-27T09:00:16.901Z,78
2022-11-27T09:01:24.044Z,78
2022-11-27T09:02:31.140Z,78
2022-11-27T09:03:38.331Z,78
2022-11-27T09:04:44.802Z,78
2022-11-27T09:05:51.906Z,78
2022-11-27T09:06:59.014Z,78
2022-11-27T09:08:06.677Z,77
2022-11-27T09:09:13.212Z,77
2022-11-27T09:10:19.860Z,77
2022-11-27T09:11:26.959Z,77
2022-11-27T09:12:34.072Z,77
2022-11-27T09:13:41.123Z,77
2022-11-27T09:14:48.290Z,77
2022-11-27T09:15:54.813Z,77
2022-11-27T09:17:02.051Z,77
2022-11-27T09:18:09.014Z,77
2022-11-27T09:19:16.164Z,77
2022-11-27T09:20:23.267Z,77
2022-11-27T09:21:29.860Z,77
2022-11-27T09:22:37.025Z,77
2022-11-27T09:23:45.128Z,77
2022-11-27T09:24:51.129Z,77
2022-11-27T09:25:57.749Z,77
2022-11-27T09:27:04.861Z,77
2022-11-27T09:28:11.904Z,77
2022-11-27T09:29:19.106Z,77
2022-11-27T09:30:26.164Z,77
2022-11-27T09:31:32.781Z,77
2022-11-27T09:33:47.022Z,77
2022-11-27T09:34:54.703Z,77
2022-11-27T09:36:01.161Z,77
2022-11-27T09:37:07.752Z,77
2022-11-27T09:38:14.870Z,77
2022-11-27T09:39:21.926Z,77
2022-11-27T09:40:29.222Z,77
2022-11-27T09:41:36.566Z,77
2022-11-27T09:42:42.765Z,77
2022-11-27T09:43:49.808Z,77
2022-11-27T09:44:57.019Z,77
2022-11-27T09:46:04.206Z,77
2022-11-27T09:47:11.217Z,77
2022-11-27T09:48:17.797Z,77
2022-11-27T09:49:24.900Z,77
2022-11-27T09:50:31.961Z,77
2022-11-27T09:51:39.731Z,77
2022-11-27T09:52:46.271Z,77
2022-11-27T09:53:52.762Z,77
2022-11-27T09:54:59.890Z,77
2022-11-27T09:56:07.023Z,78
2022-11-27T09:57:14.144Z,78
2022-11-27T09:58:21.166Z,78
2022-11-27T10:00:34.922Z,78
2022-11-27T10:01:47.691Z,78
2022-11-27T10:02:49.206Z,79
2022-11-27T10:03:56.227Z,79
2022-11-27T10:05:13.798Z,79
2022-11-27T10:06:10.049Z,79
2022-11-27T10:07:17.148Z,79
2022-11-27T10:08:24.094Z,80
2022-11-27T10:09:31.189Z,80
2022-11-27T10:10:37.824Z,80
2022-11-27T10:11:44.913Z,80
2022-11-27T10:12:55.069Z,80
2022-11-27T10:13:59.139Z,80
2022-11-27T10:15:06.208Z,80
2022-11-27T10:16:12.831Z,80
2022-11-27T10:17:19.982Z,81
2022-11-27T10:18:27.043Z,81
2022-11-27T10:19:34.103Z,81
2022-11-27T10:20:41.215Z,81
2022-11-27T10:21:47.862Z,81
2022-11-27T10:22:55.047Z,81
2022-11-27T10:24:01.977Z,81
2022-11-27T10:25:09.176Z,82
2022-11-27T10:26:16.276Z,82
2022-11-27T10:28:30.017Z,82
2022-11-27T10:29:37.052Z,82
2022-11-27T10:30:44.151Z,82
2022-11-27T10:31:50.779Z,82
2022-11-27T10:32:57.903Z,82
2022-11-27T10:34:04.953Z,82
2022-11-27T10:35:11.990Z,83
2022-11-27T10:37:25.763Z,83
2022-11-27T10:38:32.803Z,83
2022-11-27T10:39:39.980Z,82
2022-11-27T10:40:47.042Z,82
2022-11-27T10:41:54.171Z,82
2022-11-27T10:43:00.834Z,82
2022-11-27T10:44:07.820Z,82
2022-11-27T10:45:14.927Z,82
2022-11-27T10:46:22.094Z,81
2022-11-27T10:47:33.462Z,81
2022-11-27T10:48:35.762Z,81
2022-11-27T10:49:42.797Z,80
2022-11-27T10:50:49.989Z,80
2022-11-27T10:51:57.112Z,80
2022-11-27T10:53:04.218Z,80
2022-11-27T10:54:10.715Z,79
2022-11-27T10:56:24.975Z,79
2022-11-27T10:57:31.601Z,79
2022-11-27T10:58:39.208Z,79
2022-11-27T10:59:45.782Z,79
2022-11-27T11:00:52.886Z,79
2022-11-27T11:02:00.069Z,79
2022-11-27T11:03:07.122Z,79
2022-11-27T11:04:36.406Z,79
2022-11-27T11:05:34.988Z,79
2022-11-27T11:06:28.194Z,79
2022-11-27T11:07:35.025Z,79
2022-11-27T11:08:42.051Z,79
2022-11-27T11:09:49.238Z,79
2022-11-27T11:10:55.801Z,80
2022-11-27T11:12:02.837Z,80
2022-11-27T11:13:10.043Z,80
2022-11-27T11:14:17.152Z,80
2022-11-27T11:15:24.186Z,80
2022-11-27T11:16:35.137Z,80
2022-11-27T11:17:37.975Z,80
2022-11-27T11:18:45.056Z,80
2022-11-27T11:19:52.114Z,80
2022-11-27T11:20:59.182Z,80
2022-11-27T11:22:09.197Z,80
2022-11-27T11:24:20.016Z,80
2022-11-27T11:25:27.150Z,80
2022-11-27T11:26:34.265Z,80
2022-11-27T11:28:47.967Z,80
2022-11-27T11:29:55.049Z,80
2022-11-27T11:31:02.122Z,80
2022-11-27T11:32:09.378Z,80
2022-11-27T11:33:15.813Z,80
2022-11-27T11:34:22.892Z,80
2022-11-27T11:35:30.046Z,80
2022-11-27T11:36:37.103Z,80
2022-11-27T11:37:43.731Z,80
2022-11-27T11:38:51.331Z,80
2022-11-27T11:41:05.054Z,80
2022-11-27T11:42:12.134Z,80
2022-11-27T11:43:18.712Z,80
2022-11-27T11:44:25.812Z,80
2022-11-27T11:45:33.319Z,80
2022-11-27T11:46:40.112Z,80
2022-11-27T11:47:47.166Z,80
2022-11-27T11:48:53.712Z,80
2022-11-27T11:50:00.828Z,79
2022-11-27T11:51:07.920Z,80
2022-11-27T11:52:15.242Z,80
2022-11-27T11:53:22.162Z,80
2022-11-27T11:54:29.258Z,79
2022-11-27T11:55:35.816Z,79
2022-11-27T11:56:42.964Z,79
2022-11-27T11:57:50.036Z,79
2022-11-27T11:58:57.670Z,79
2022-11-27T12:00:03.752Z,79
2022-11-27T12:01:26.608Z,79
2022-11-27T12:02:18.017Z,79
2022-11-27T12:03:25.093Z,79
2022-11-27T12:04:32.279Z,79
2022-11-27T12:05:38.775Z,79
2022-11-27T12:06:45.844Z,79
2022-11-27T12:07:52.985Z,79
2022-11-27T12:09:00.079Z,79
2022-11-27T12:10:07.159Z,79
2022-11-27T12:11:13.748Z,79
2022-11-27T12:12:20.883Z,79
2022-11-27T12:13:32.951Z,79
2022-11-27T12:14:35.100Z,79
2022-11-27T12:15:42.172Z,79
2022-11-27T12:16:48.893Z,79
2022-11-27T12:17:55.848Z,79
2022-11-27T12:19:02.942Z,80
2022-11-27T12:20:09.537Z,80
2022-11-27T12:21:17.190Z,80
2022-11-27T12:22:23.831Z,80
2022-11-27T12:23:30.902Z,80
2022-11-27T12:24:38.444Z,80
2022-11-27T12:25:45.736Z,80
2022-11-27T12:26:52.165Z,80
2022-11-27T12:27:58.812Z,80
2022-11-27T12:29:06.134Z,80
2022-11-27T12:30:12.998Z,80
2022-11-27T12:31:20.144Z,80
2022-11-27T12:32:27.220Z,81
2022-11-27T12:33:33.774Z,81
2022-11-27T12:34:41.004Z,81
2022-11-27T12:35:48.027Z,81
2022-11-27T12:36:55.134Z,81
2022-11-27T12:38:02.241Z,81
2022-11-27T12:39:08.772Z,81
2022-11-27T12:40:15.986Z,81
2022-11-27T12:41:22.963Z,82
2022-11-27T12:42:30.162Z,82
2022-11-27T12:43:37.256Z,82
2022-11-27T12:44:43.748Z,82
2022-11-27T12:45:50.959Z,82
2022-11-27T12:46:58.043Z,83
2022-11-27T12:48:05.203Z,83
2022-11-27T12:49:12.299Z,83
2022-11-27T12:50:18.824Z,83
2022-11-27T12:51:25.904Z,83
2022-11-27T12:52:33.022Z,83
2022-11-27T12:54:47.243Z,84
2022-11-27T12:57:00.918Z,84
2022-11-27T12:58:08.022Z,84
2022-11-27T12:59:15.190Z,84
2022-11-27T13:00:21.736Z,84
2022-11-27T13:02:36.646Z,85
2022-11-27T13:03:42.981Z,85
2022-11-27T13:04:50.119Z,85
2022-11-27T13:05:56.729Z,85
2022-11-27T13:07:03.775Z,85
2022-11-27T13:08:10.926Z,85
2022-11-27T13:09:18.028Z,85
2022-11-27T13:10:25.168Z,85
2022-11-27T13:11:31.821Z,86
2022-11-27T13:12:38.881Z,86
2022-11-27T13:13:45.982Z,86
2022-11-27T13:14:53.053Z,86
2022-11-27T13:16:00.306Z,86
2022-11-27T13:17:06.740Z,86
2022-11-27T13:18:13.835Z,86
2022-11-27T13:19:20.973Z,86
2022-11-27T13:20:28.055Z,87
2022-11-27T13:22:41.700Z,87
2022-11-27T13:23:48.885Z,87
2022-11-27T13:24:55.993Z,87
2022-11-27T13:26:03.071Z,87
2022-11-27T13:27:10.211Z,87
2022-11-27T13:28:16.874Z,87
2022-11-27T13:29:23.909Z,87
2022-11-27T13:30:31.017Z,87
2022-11-27T13:31:38.080Z,87
2022-11-27T13:32:45.232Z,87
2022-11-27T13:33:51.728Z,87
2022-11-27T13:34:58.900Z,87
2022-11-27T13:36:05.948Z,87
2022-11-27T13:37:13.025Z,87
2022-11-27T13:38:20.231Z,87
2022-11-27T13:39:26.774Z,87
2022-11-27T13:40:33.843Z,87
2022-11-27T13:41:40.971Z,87
2022-11-27T13:43:55.204Z,87
2022-11-27T13:45:01.820Z,87
2022-11-27T13:46:08.907Z,87
2022-11-27T13:48:23.121Z,87
2022-11-27T13:49:30.224Z,87
2022-11-27T13:50:36.814Z,87
2022-11-27T13:51:43.880Z,87
2022-11-27T13:52:51.045Z,87
2022-11-27T13:53:58.097Z,87
2022-11-27T13:55:05.246Z,87
2022-11-27T13:56:11.805Z,87
2022-11-27T13:57:18.889Z,87
2022-11-27T13:58:26.013Z,87
2022-11-27T13:59:39.071Z,87
2022-11-27T14:00:40.400Z,87
2022-11-27T14:01:46.883Z,87
2022-11-27T14:02:55.228Z,87
2022-11-27T14:04:01.021Z,87
2022-11-27T14:05:08.117Z,87
2022-11-27T14:06:15.763Z,87
2022-11-27T14:07:21.798Z,87
2022-11-27T14:08:29.079Z,87
2022-11-27T14:09:36.071Z,87
2022-11-27T14:10:43.104Z,87
2022-11-27T14:11:50.204Z,87
2022-11-27T14:12:56.842Z,87
2022-11-27T14:14:03.905Z,87
2022-11-27T14:15:11.025Z,87
2022-11-27T14:16:18.230Z,87
2022-11-27T14:17:25.274Z,87
2022-11-27T14:18:31.956Z,87
2022-11-27T14:19:38.961Z,87
2022-11-27T14:20:46.015Z,87
2022-11-27T14:21:53.094Z,87
2022-11-27T14:23:11.825Z,86
2022-11-27T14:25:13.904Z,86
2022-11-27T14:26:21.048Z,86
2022-11-27T14:27:28.132Z,86
2022-11-27T14:28:34.817Z,86
2022-11-27T14:29:41.837Z,86
2022-11-27T14:30:49.037Z,86
2022-11-27T14:31:56.191Z,85
2022-11-27T14:33:03.123Z,85
2022-11-27T14:34:16.840Z,85
2022-11-27T14:35:16.857Z,85
2022-11-27T14:36:23.942Z,85
2022-11-27T14:37:31.009Z,84
2022-11-27T14:38:38.376Z,84
2022-11-27T14:39:44.743Z,84
2022-11-27T14:40:51.823Z,84
2022-11-27T14:41:58.949Z,83
2022-11-27T14:43:06.107Z,83
2022-11-27T14:44:13.126Z,83
2022-11-27T14:45:19.864Z,83
2022-11-27T14:46:26.923Z,83
2022-11-27T14:47:33.973Z,82
2022-11-27T14:48:41.121Z,82
2022-11-27T14:49:50.603Z,82
2022-11-27T14:53:09.046Z,81
2022-11-27T14:54:16.223Z,81
2022-11-27T14:55:23.217Z,81
2022-11-27T14:56:29.796Z,81
2022-11-27T14:57:37.966Z,81
2022-11-27T14:58:44.013Z,81
2022-11-27T14:59:51.146Z,81
2022-11-27T15:00:58.175Z,81
2022-11-27T15:02:05.102Z,80
2022-11-27T15:03:12.118Z,80
2022-11-27T15:04:19.010Z,80
2022-11-27T15:06:33.150Z,80
2022-11-27T15:07:46.559Z,80
2022-11-27T15:08:57.888Z,80
2022-11-27T15:09:54.597Z,80
2022-11-27T15:11:01.103Z,79
2022-11-27T15:12:08.631Z,79
2022-11-27T15:13:14.972Z,79
2022-11-27T15:14:21.901Z,79
2022-11-27T15:15:29.046Z,79
2022-11-27T15:16:36.181Z,78
2022-11-27T15:17:43.162Z,78
2022-11-27T15:18:49.839Z,78
2022-11-27T15:19:57.006Z,78
2022-11-27T15:21:04.089Z,78
2022-11-27T15:22:11.082Z,78
2022-11-27T15:23:18.237Z,78
2022-11-27T15:24:24.789Z,78
2022-11-27T15:25:32.039Z,78
2022-11-27T15:26:39.135Z,78
2022-11-27T15:27:46.168Z,78
2022-11-27T15:28:52.657Z,78
2022-11-27T15:29:59.928Z,78
2022-11-27T15:31:07.004Z,78
2022-11-27T15:32:14.029Z,78
2022-11-27T15:33:21.135Z,78
2022-11-27T15:34:27.751Z,78
2022-11-27T15:35:34.845Z,78
2022-11-27T15:36:42.043Z,78
2022-11-27T15:37:49.105Z,78
2022-11-27T15:38:56.178Z,78
2022-11-27T15:40:02.731Z,78
2022-11-27T15:42:17.102Z,78
2022-11-27T15:43:24.152Z,78
2022-11-27T15:44:31.258Z,79
2022-11-27T15:45:37.864Z,79
2022-11-27T15:47:51.984Z,79
2022-11-27T15:48:59.114Z,79
2022-11-27T15:50:06.305Z,79
2022-11-27T15:51:12.705Z,79
2022-11-27T15:52:19.937Z,79
2022-11-27T15:53:27.059Z,79
2022-11-27T15:55:41.238Z,79
2022-11-27T15:56:47.767Z,79
2022-11-27T15:57:54.878Z,80
2022-11-27T15:59:02.016Z,80
2022-11-27T16:00:09.045Z,80
2022-11-27T16:01:16.256Z,80
2022-11-27T16:02:22.759Z,80
2022-11-27T16:03:30.011Z,80
2022-11-27T16:04:36.965Z,80
2022-11-27T16:05:44.054Z,80
2022-11-27T16:06:51.276Z,81
2022-11-27T16:07:58.083Z,81
2022-11-27T16:09:04.866Z,81
2022-11-27T16:10:11.963Z,81
2022-11-27T16:11:19.110Z,81
2022-11-27T16:12:26.239Z,81
2022-11-27T16:13:33.255Z,81
2022-11-27T16:14:40.134Z,81
2022-11-27T16:15:47.016Z,81
2022-11-27T16:16:54.207Z,81
2022-11-27T16:18:01.183Z,81
2022-11-27T16:19:07.833Z,81
2022-11-27T16:20:15.055Z,81
2022-11-27T16:21:27.960Z,81
2022-11-27T16:22:29.077Z,81
2022-11-27T16:23:36.234Z,81
2022-11-27T16:24:43.182Z,81
2022-11-27T16:25:49.875Z,81
2022-11-27T16:26:57.175Z,81
2022-11-27T16:29:11.304Z,81
2022-11-27T16:30:17.782Z,81
2022-11-27T16:31:25.070Z,81
2022-11-27T16:32:32.158Z,81
2022-11-27T16:33:39.197Z,81
2022-11-27T16:35:52.978Z,80
2022-11-27T16:37:00.173Z,80
2022-11-27T16:38:07.159Z,80
2022-11-27T16:39:14.324Z,80
2022-11-27T16:40:20.819Z,80
2022-11-27T16:41:27.975Z,80
2022-11-27T16:42:34.905Z,80
2022-11-27T16:43:42.101Z,80
2022-11-27T16:44:49.240Z,80
2022-11-27T16:45:55.744Z,80
2022-11-27T16:47:03.002Z,80
2022-11-27T16:48:10.030Z,80
2022-11-27T16:49:17.178Z,80
2022-11-27T16:50:24.172Z,80
2022-11-27T16:51:30.665Z,80
2022-11-27T16:52:37.955Z,80
2022-11-27T16:53:45.043Z,80
2022-11-27T16:54:51.468Z,80
2022-11-27T16:55:59.122Z,80
2022-11-27T16:57:05.781Z,80
2022-11-27T16:59:20.045Z,80
2022-11-27T17:00:27.123Z,80
2022-11-27T17:01:34.477Z,79